createdAt,value
2019-04-25T00:01:01.172Z,71.55
2019-04-25T00:03:31.918Z,71.58
2019-04-25T00:05:57.909Z,71.52
2019-04-25T00:08:25.366Z,71.52
2019-04-25T00:10:52.819Z,71.62
2019-04-25T00:13:21.727Z,71.42
2019-04-25T00:15:48.098Z,71.28
2019-04-25T00:18:15.263Z,71.38
2019-04-25T00:20:45.173Z,71.41
2019-04-25T00:23:14.083Z,71.35
2019-04-25T00:25:48.120Z,71.36
2019-04-25T00:28:14.744Z,71.25
2019-04-25T00:30:43.488Z,71.42
2019-04-25T00:33:09.679Z,71.76
2019-04-25T00:35:37.145Z,71.98
2019-04-25T00:38:04.594Z,72.03
2019-04-25T00:40:32.071Z,72.19
2019-04-25T00:42:59.518Z,72.25
2019-04-25T00:45:27.019Z,72.36
2019-04-25T00:47:54.493Z,72.18
2019-04-25T00:50:22.018Z,72.16
2019-04-25T00:52:49.408Z,72.06
2019-04-25T00:55:26.139Z,71.94
2019-04-25T00:57:44.801Z,71.97
2019-04-25T01:00:16.056Z,72.00
2019-04-25T01:02:44.170Z,71.38
2019-04-25T01:05:11.651Z,71.06
2019-04-25T01:07:38.494Z,70.74
2019-04-25T01:10:05.937Z,70.77
2019-04-25T01:12:33.557Z,70.81
2019-04-25T01:15:01.668Z,71.14
2019-04-25T01:17:28.510Z,71.21
2019-04-25T01:19:58.013Z,71.33
2019-04-25T01:22:23.452Z,71.17
2019-04-25T01:24:51.445Z,70.87
2019-04-25T01:27:18.425Z,70.59
2019-04-25T01:29:46.328Z,70.33
2019-04-25T01:32:13.949Z,70.01
2019-04-25T01:34:53.793Z,70.09
2019-04-25T01:37:21.036Z,70.58
2019-04-25T01:39:48.937Z,70.89
2019-04-25T01:42:18.107Z,71.43
2019-04-25T01:44:45.579Z,71.97
2019-04-25T01:47:14.086Z,72.53
2019-04-25T01:49:40.559Z,73.01
2019-04-25T01:52:08.023Z,73.58
2019-04-25T01:54:35.467Z,73.80
2019-04-25T01:57:04.369Z,73.82
2019-04-25T01:59:30.429Z,73.83
2019-04-25T02:01:58.684Z,73.94
2019-04-25T02:04:25.443Z,73.90
2019-04-25T02:06:54.360Z,73.80
2019-04-25T02:09:20.386Z,73.72
2019-04-25T02:11:47.843Z,73.60
2019-04-25T02:14:15.299Z,73.49
2019-04-25T02:16:43.933Z,73.15
2019-04-25T02:19:10.260Z,73.18
2019-04-25T02:21:37.725Z,72.80
2019-04-25T02:24:05.649Z,71.80
2019-04-25T02:26:34.081Z,71.13
2019-04-25T02:29:00.554Z,70.40
2019-04-25T02:31:27.681Z,69.97
2019-04-25T02:33:59.670Z,69.53
2019-04-25T02:36:24.658Z,69.21
2019-04-25T02:38:50.175Z,68.97
2019-04-25T02:41:17.622Z,69.19
2019-04-25T02:43:45.359Z,69.20
2019-04-25T02:49:09.948Z,68.11
2019-04-25T02:51:38.353Z,68.25
2019-04-25T02:54:07.908Z,68.15
2019-04-25T02:56:37.727Z,68.02
2019-04-25T02:59:00.870Z,67.80
2019-04-25T03:01:28.327Z,68.01
2019-04-25T03:03:57.463Z,68.45
2019-04-25T03:06:25.041Z,68.81
2019-04-25T03:08:50.846Z,68.91
2019-04-25T03:11:18.304Z,68.87
2019-04-25T03:13:45.743Z,69.22
2019-04-25T03:16:14.043Z,69.58
2019-04-25T03:18:44.232Z,69.54
2019-04-25T03:21:14.191Z,69.42
2019-04-25T03:23:42.181Z,69.26
2019-04-25T03:26:07.219Z,68.87
2019-04-25T03:28:33.980Z,68.91
2019-04-25T03:31:02.139Z,68.99
2019-04-25T03:33:28.790Z,68.83
2019-04-25T03:35:56.225Z,68.83
2019-04-25T03:38:24.290Z,68.54
2019-04-25T03:40:51.177Z,68.43
2019-04-25T03:43:18.629Z,68.35
2019-04-25T03:45:46.070Z,68.14
2019-04-25T03:48:13.943Z,67.78
2019-04-25T03:50:41.212Z,68.20
2019-04-25T03:53:08.711Z,68.35
2019-04-25T03:55:36.171Z,68.25
2019-04-25T03:58:06.653Z,67.84
2019-04-25T04:00:31.167Z,67.40
2019-04-25T04:02:58.637Z,67.00
2019-04-25T04:05:26.095Z,66.88
2019-04-25T04:07:53.619Z,66.78
2019-04-25T04:10:21.231Z,66.86
2019-04-25T04:12:48.531Z,67.14
2019-04-25T04:15:16.082Z,67.44
2019-04-25T04:17:43.851Z,67.42
2019-04-25T04:20:25.654Z,67.26
2019-04-25T04:22:57.674Z,67.09
2019-04-25T04:25:25.134Z,67.33
2019-04-25T04:27:53.803Z,67.55
2019-04-25T04:30:20.066Z,67.68
2019-04-25T04:32:47.701Z,68.11
2019-04-25T04:35:16.124Z,68.75
2019-04-25T04:37:43.154Z,69.07
2019-04-25T04:40:10.158Z,69.24
2019-04-25T04:42:37.594Z,69.51
2019-04-25T04:45:05.039Z,69.54
2019-04-25T04:47:33.262Z,69.51
2019-04-25T04:49:59.991Z,69.39
2019-04-25T04:52:27.441Z,69.26
2019-04-25T04:55:05.373Z,69.14
2019-04-25T04:57:32.260Z,69.19
2019-04-25T04:59:49.896Z,69.14
2019-04-25T05:05:14.442Z,67.91
2019-04-25T05:07:40.145Z,67.75
2019-04-25T05:10:07.630Z,68.21
2019-04-25T05:12:36.358Z,68.71
2019-04-25T05:15:03.837Z,68.98
2019-04-25T05:17:31.311Z,68.80
2019-04-25T05:19:58.817Z,68.62
2019-04-25T05:25:00.115Z,67.80
2019-04-25T05:27:35.848Z,67.10
2019-04-25T05:29:55.069Z,66.67
2019-04-25T05:32:24.131Z,66.38
2019-04-25T05:34:50.040Z,66.69
2019-04-25T05:37:17.608Z,66.71
2019-04-25T05:39:44.983Z,66.69
2019-04-25T05:45:06.524Z,65.67
2019-04-25T05:47:34.144Z,64.99
2019-04-25T05:50:01.617Z,64.86
2019-04-25T05:52:29.070Z,64.54
2019-04-25T05:54:56.726Z,64.18
2019-04-25T05:57:24.999Z,63.53
2019-04-25T05:59:51.678Z,63.16
2019-04-25T06:02:19.490Z,62.70
2019-04-25T06:04:46.694Z,62.71
2019-04-25T06:07:14.880Z,62.84
2019-04-25T06:12:36.861Z,61.57
2019-04-25T06:15:04.632Z,61.45
2019-04-25T06:20:29.292Z,61.81
2019-04-25T06:23:14.559Z,61.98
2019-04-25T06:25:43.801Z,61.91
2019-04-25T06:28:14.148Z,61.51
2019-04-25T06:30:44.205Z,61.73
2019-04-25T06:33:09.900Z,61.68
2019-04-25T06:35:37.374Z,61.55
2019-04-25T06:38:04.888Z,61.12
2019-04-25T06:40:43.612Z,60.43
2019-04-25T06:43:18.612Z,60.09
2019-04-25T06:45:51.820Z,59.79
2019-04-25T06:48:27.173Z,60.13
2019-04-25T06:51:04.428Z,60.75
2019-04-25T06:53:34.608Z,60.78
2019-04-25T06:56:06.437Z,60.83
2019-04-25T06:58:40.928Z,60.45
2019-04-25T07:01:16.799Z,60.15
2019-04-25T07:03:46.056Z,60.30
2019-04-25T07:06:19.243Z,60.07
2019-04-25T07:11:32.429Z,58.77
2019-04-25T07:14:06.125Z,58.07
2019-04-25T07:16:35.680Z,57.61
2019-04-25T07:19:07.266Z,56.72
2019-04-25T07:21:48.160Z,56.83
2019-04-25T07:24:24.834Z,56.37
2019-04-25T07:27:13.762Z,55.85
2019-04-25T07:29:44.186Z,55.42
2019-04-25T07:32:19.127Z,55.35
2019-04-25T07:34:46.644Z,54.92
2019-04-25T07:37:14.105Z,54.55
2019-04-25T07:39:41.590Z,54.27
2019-04-25T07:42:09.095Z,53.96
2019-04-25T07:44:49.303Z,53.93
2019-04-25T07:47:04.128Z,54.35
2019-04-25T07:49:33.060Z,54.12
2019-04-25T07:51:59.991Z,53.09
2019-04-25T07:54:27.868Z,52.87
2019-04-25T07:56:55.163Z,52.68
2019-04-25T07:59:23.735Z,52.25
2019-04-25T08:01:50.074Z,52.50
2019-04-25T08:04:17.605Z,53.28
2019-04-25T08:06:45.090Z,53.37
2019-04-25T08:09:15.448Z,53.34
2019-04-25T08:11:40.104Z,53.48
2019-04-25T08:14:18.354Z,53.15
2019-04-25T08:16:46.573Z,52.56
2019-04-25T08:19:14.037Z,52.46
2019-04-25T08:21:41.572Z,52.00
2019-04-25T08:24:09.207Z,51.65
2019-04-25T08:26:37.518Z,50.98
2019-04-25T08:29:04.201Z,50.26
2019-04-25T08:31:33.881Z,49.57
2019-04-25T08:33:59.184Z,49.49
2019-04-25T08:36:26.932Z,48.08
2019-04-25T08:38:55.214Z,48.08
2019-04-25T08:41:23.923Z,48.20
2019-04-25T08:43:50.264Z,47.93
2019-04-25T08:46:17.732Z,47.88
2019-04-25T08:48:50.681Z,47.21
2019-04-25T08:51:18.171Z,46.50
2019-04-25T08:53:48.438Z,45.54
2019-04-25T08:56:15.930Z,45.14
2019-04-25T08:58:45.359Z,44.79
2019-04-25T09:01:14.113Z,44.46
2019-04-25T09:03:44.332Z,44.26
2019-04-25T09:06:10.810Z,43.60
2019-04-25T09:08:39.358Z,43.85
2019-04-25T09:11:05.735Z,44.02
2019-04-25T09:13:35.831Z,44.20
2019-04-25T09:16:00.717Z,44.54
2019-04-25T09:18:28.226Z,44.65
2019-04-25T09:20:55.675Z,44.25
2019-04-25T09:23:23.664Z,44.14
2019-04-25T09:25:50.663Z,44.01
2019-04-25T09:28:18.207Z,44.28
2019-04-25T09:30:45.981Z,44.25
2019-04-25T09:33:13.343Z,45.04
2019-04-25T09:35:41.627Z,45.46
2019-04-25T09:38:08.145Z,45.41
2019-04-25T09:40:36.116Z,44.39
2019-04-25T09:43:03.630Z,43.95
2019-04-25T09:45:43.965Z,42.86
2019-04-25T09:51:16.801Z,39.29
2019-04-25T09:53:49.610Z,41.35
2019-04-25T09:56:22.002Z,42.31
2019-04-25T09:58:53.758Z,42.52
2019-04-25T10:01:19.618Z,41.69
2019-04-25T10:03:47.386Z,41.16
2019-04-25T10:06:14.722Z,40.83
2019-04-25T10:08:43.631Z,39.91
2019-04-25T10:11:09.694Z,40.11
2019-04-25T10:13:37.597Z,39.48
2019-04-25T10:16:05.514Z,38.90
2019-04-25T10:18:33.455Z,38.10
2019-04-25T10:21:00.636Z,36.99
2019-04-25T10:23:28.118Z,36.94
2019-04-25T10:25:55.745Z,36.96
2019-04-25T10:28:23.435Z,36.82
2019-04-25T10:30:50.714Z,36.59
2019-04-25T10:33:18.175Z,36.49
2019-04-25T10:35:52.141Z,36.42
2019-04-25T10:38:13.893Z,35.84
2019-04-25T10:40:40.566Z,36.11
2019-04-25T10:43:06.688Z,36.61
2019-04-25T10:45:34.190Z,36.66
2019-04-25T10:48:01.693Z,37.46
2019-04-25T10:50:29.142Z,37.73
2019-04-25T10:52:56.678Z,37.60
2019-04-25T10:55:24.139Z,37.56
2019-04-25T10:57:51.640Z,37.77
2019-04-25T11:00:20.616Z,37.91
2019-04-25T11:02:48.095Z,38.17
2019-04-25T11:05:15.597Z,38.29
2019-04-25T11:07:43.044Z,38.40
2019-04-25T11:10:10.496Z,38.69
2019-04-25T11:12:38.253Z,39.41
2019-04-25T11:15:05.772Z,39.50
2019-04-25T11:17:33.895Z,39.60
2019-04-25T11:20:00.806Z,39.67
2019-04-25T11:22:28.288Z,39.66
2019-04-25T11:24:55.748Z,38.52
2019-04-25T11:27:23.956Z,37.91
2019-04-25T11:29:50.785Z,37.29
2019-04-25T11:32:19.889Z,36.91
2019-04-25T11:34:47.218Z,36.34
2019-04-25T11:37:14.717Z,37.03
2019-04-25T11:39:45.757Z,36.65
2019-04-25T11:42:13.118Z,36.49
2019-04-25T11:44:39.642Z,36.25
2019-04-25T11:47:08.587Z,36.18
2019-04-25T11:49:34.657Z,36.60
2019-04-25T11:52:03.411Z,37.80
2019-04-25T11:54:29.646Z,39.27
2019-04-25T11:56:57.104Z,40.14
2019-04-25T11:59:24.659Z,40.52
2019-04-25T12:01:52.313Z,40.00
2019-04-25T12:04:19.738Z,39.87
2019-04-25T12:06:47.616Z,39.84
2019-04-25T12:09:14.723Z,39.56
2019-04-25T12:11:44.723Z,39.18
2019-04-25T12:14:09.698Z,39.08
2019-04-25T12:16:37.263Z,38.98
2019-04-25T12:19:04.893Z,38.40
2019-04-25T12:21:32.229Z,38.46
2019-04-25T12:24:01.808Z,38.03
2019-04-25T12:26:27.195Z,37.66
2019-04-25T12:28:56.407Z,38.15
2019-04-25T12:31:23.751Z,38.98
2019-04-25T12:33:50.031Z,39.54
2019-04-25T12:36:17.244Z,39.84
2019-04-25T12:38:46.047Z,40.21
2019-04-25T12:41:12.203Z,40.08
2019-04-25T12:43:39.744Z,40.23
2019-04-25T12:46:07.371Z,40.12
2019-04-25T12:48:34.843Z,40.24
2019-04-25T12:51:03.234Z,39.73
2019-04-25T12:53:29.835Z,40.01
2019-04-25T12:55:57.286Z,40.20
2019-04-25T12:58:24.751Z,39.02
2019-04-25T13:00:54.943Z,38.65
2019-04-25T13:03:20.115Z,38.41
2019-04-25T13:05:47.571Z,38.18
2019-04-25T13:08:15.066Z,38.75
2019-04-25T13:10:44.303Z,39.03
2019-04-25T13:13:10.232Z,38.33
2019-04-25T13:15:37.718Z,37.47
2019-04-25T13:18:05.160Z,37.77
2019-04-25T13:20:32.627Z,38.35
2019-04-25T13:23:00.582Z,38.56
2019-04-25T13:25:27.096Z,38.31
2019-04-25T13:28:09.897Z,37.80
2019-04-25T13:30:42.647Z,37.12
2019-04-25T13:33:20.120Z,36.81
2019-04-25T13:35:54.257Z,36.57
2019-04-25T13:38:20.070Z,36.75
2019-04-25T13:40:47.531Z,36.52
2019-04-25T13:43:15.144Z,37.51
2019-04-25T13:45:42.603Z,37.28
2019-04-25T13:48:10.164Z,37.41
2019-04-25T13:50:37.618Z,37.21
2019-04-25T13:53:05.077Z,37.02
2019-04-25T13:55:32.531Z,37.16
2019-04-25T13:58:00.055Z,37.22
2019-04-25T14:00:27.746Z,36.98
2019-04-25T14:02:55.039Z,37.18
2019-04-25T14:05:24.226Z,37.94
2019-04-25T14:07:50.029Z,39.16
2019-04-25T14:10:17.478Z,40.04
2019-04-25T14:12:44.978Z,40.25
2019-04-25T14:15:13.875Z,40.44
2019-04-25T14:17:45.458Z,39.32
2019-04-25T14:20:16.928Z,37.71
2019-04-25T14:22:45.439Z,36.15
2019-04-25T14:25:11.887Z,35.65
2019-04-25T14:27:39.371Z,35.36
2019-04-25T14:30:06.862Z,35.24
2019-04-25T14:32:35.170Z,35.23
2019-04-25T14:35:03.312Z,35.26
2019-04-25T14:37:32.931Z,35.43
2019-04-25T14:39:56.901Z,35.61
2019-04-25T14:42:24.561Z,35.77
2019-04-25T14:44:51.943Z,35.80
2019-04-25T14:47:19.478Z,35.87
2019-04-25T14:49:46.943Z,35.80
2019-04-25T14:52:14.411Z,35.83
2019-04-25T14:54:45.549Z,35.73
2019-04-25T14:57:13.938Z,35.91
2019-04-25T14:59:41.399Z,35.88
2019-04-25T15:02:08.899Z,35.94
2019-04-25T15:04:36.358Z,36.03
2019-04-25T15:07:04.053Z,36.06
2019-04-25T15:09:32.261Z,35.90
2019-04-25T15:11:59.015Z,36.01
2019-04-25T15:14:26.939Z,36.17
2019-04-25T15:16:53.996Z,36.18
2019-04-25T15:19:21.439Z,36.06
2019-04-25T15:21:48.899Z,36.11
2019-04-25T15:24:16.387Z,36.12
2019-04-25T15:26:44.152Z,36.34
2019-04-25T15:29:16.437Z,36.47
2019-04-25T15:31:55.201Z,36.42
2019-04-25T15:34:11.917Z,36.43
2019-04-25T15:36:39.377Z,36.86
2019-04-25T15:39:12.240Z,37.20
2019-04-25T15:41:40.215Z,37.65
2019-04-25T15:44:13.196Z,38.02
2019-04-25T15:46:40.682Z,38.32
2019-04-25T15:49:08.194Z,38.83
2019-04-25T15:51:35.680Z,39.10
2019-04-25T15:54:03.174Z,39.46
2019-04-25T15:56:30.634Z,39.76
2019-04-25T15:58:58.165Z,40.03
2019-04-25T16:01:26.370Z,40.30
2019-04-25T16:03:53.208Z,40.64
2019-04-25T16:06:20.660Z,41.28
2019-04-25T16:08:48.127Z,41.51
2019-04-25T16:11:15.679Z,42.03
2019-04-25T16:13:43.211Z,42.95
2019-04-25T16:16:10.728Z,44.39
2019-04-25T16:18:38.457Z,46.08
2019-04-25T16:21:05.951Z,47.48
2019-04-25T16:23:34.320Z,48.09
2019-04-25T16:26:01.053Z,48.99
2019-04-25T16:28:28.841Z,49.45
2019-04-25T16:30:56.030Z,50.14
2019-04-25T16:33:23.475Z,50.54
2019-04-25T16:35:50.923Z,50.93
2019-04-25T16:38:18.368Z,51.10
2019-04-25T16:40:45.941Z,50.45
2019-04-25T16:43:13.553Z,50.78
2019-04-25T16:45:41.374Z,51.26
2019-04-25T16:48:08.553Z,52.22
2019-04-25T16:50:36.507Z,53.03
2019-04-25T16:53:03.743Z,53.66
2019-04-25T16:55:31.745Z,53.63
2019-04-25T16:57:58.666Z,54.09
2019-04-25T17:03:24.230Z,55.23
2019-04-25T17:05:51.742Z,55.12
2019-04-25T17:08:19.185Z,55.35
2019-04-25T17:10:46.736Z,55.34
2019-04-25T17:13:14.304Z,55.31
2019-04-25T17:18:36.108Z,55.27
2019-04-25T17:21:02.981Z,54.95
2019-04-25T17:23:31.173Z,55.09
2019-04-25T17:25:58.140Z,54.83
2019-04-25T17:28:25.624Z,54.60
2019-04-25T17:30:53.081Z,54.73
2019-04-25T17:33:21.232Z,54.75
2019-04-25T17:36:04.576Z,54.68
2019-04-25T17:38:37.512Z,54.53
2019-04-25T17:41:04.220Z,54.69
2019-04-25T17:43:31.985Z,55.04
2019-04-25T17:45:59.263Z,55.25
2019-04-25T17:48:26.765Z,55.42
2019-04-25T17:50:54.219Z,55.32
2019-04-25T17:53:22.465Z,55.61
2019-04-25T17:55:49.916Z,55.71
2019-04-25T17:58:17.354Z,55.50
2019-04-25T18:00:45.054Z,55.51
2019-04-25T18:03:12.431Z,55.76
2019-04-25T18:05:40.048Z,56.04
2019-04-25T18:08:07.492Z,56.45
2019-04-25T18:10:35.618Z,56.87
2019-04-25T18:13:02.530Z,56.93
2019-04-25T18:15:29.978Z,57.07
2019-04-25T18:17:57.443Z,57.20
2019-04-25T18:20:24.882Z,57.55
2019-04-25T18:22:53.178Z,57.58
2019-04-25T18:25:26.325Z,57.53
2019-04-25T18:27:59.532Z,57.68
2019-04-25T18:30:26.982Z,57.53
2019-04-25T18:35:49.489Z,58.83
2019-04-25T18:41:12.231Z,59.87
2019-04-25T18:43:40.156Z,60.14
2019-04-25T18:46:07.667Z,60.88
2019-04-25T18:48:36.885Z,61.66
2019-04-25T18:51:02.649Z,61.63
2019-04-25T18:53:34.741Z,61.40
2019-04-25T18:56:07.030Z,62.05
2019-04-25T18:58:40.299Z,62.80
2019-04-25T19:01:08.273Z,63.46
2019-04-25T19:03:38.279Z,63.84
2019-04-25T19:06:05.159Z,64.62
2019-04-25T19:08:32.772Z,65.47
2019-04-25T19:11:00.310Z,65.97
2019-04-25T19:13:27.740Z,66.15
2019-04-25T19:15:55.203Z,67.24
2019-04-25T19:18:22.671Z,67.90
2019-04-25T19:20:50.191Z,68.14
2019-04-25T19:23:17.642Z,68.79
2019-04-25T19:25:45.836Z,68.44
2019-04-25T19:28:12.634Z,68.41
2019-04-25T19:30:40.995Z,68.31
2019-04-25T19:33:07.757Z,68.66
2019-04-25T19:35:35.146Z,68.72
2019-04-25T19:38:02.606Z,68.70
2019-04-25T19:40:32.591Z,68.86
2019-04-25T19:43:00.143Z,69.33
2019-04-25T19:45:27.663Z,69.67
2019-04-25T19:47:55.118Z,69.85
2019-04-25T19:50:22.585Z,69.58
2019-04-25T19:52:50.052Z,69.70
2019-04-25T19:55:17.559Z,69.47
2019-04-25T19:57:46.108Z,69.40
2019-04-25T20:00:12.605Z,70.28
2019-04-25T20:05:38.702Z,71.05
2019-04-25T20:08:24.998Z,71.10
2019-04-25T20:10:56.269Z,71.35
2019-04-25T20:13:23.815Z,71.61
2019-04-25T20:15:51.736Z,71.91
2019-04-25T20:18:19.771Z,72.32
2019-04-25T20:20:47.805Z,72.35
2019-04-25T20:23:14.704Z,72.67
2019-04-25T20:25:42.229Z,72.79
2019-04-25T20:28:09.804Z,72.84
2019-04-25T20:30:37.473Z,73.07
2019-04-25T20:33:04.922Z,73.70
2019-04-25T20:35:32.398Z,73.60
2019-04-25T20:37:59.936Z,72.85
2019-04-25T20:40:27.397Z,73.72
2019-04-25T20:42:54.849Z,74.35
2019-04-25T20:45:22.435Z,75.12
2019-04-25T20:47:50.089Z,75.02
2019-04-25T20:50:17.531Z,76.00
2019-04-25T20:52:44.631Z,75.66
2019-04-25T20:55:11.860Z,75.54
2019-04-25T20:57:39.116Z,75.96
2019-04-25T21:00:06.130Z,75.30
2019-04-25T21:02:33.808Z,76.07
2019-04-25T21:05:01.062Z,75.85
2019-04-25T21:07:27.947Z,75.74
2019-04-25T21:09:55.440Z,75.58
2019-04-25T21:12:22.912Z,75.28
2019-04-25T21:14:50.668Z,75.76
2019-04-25T21:17:32.967Z,75.79
2019-04-25T21:20:00.423Z,75.77
2019-04-25T21:22:27.884Z,76.70
2019-04-25T21:24:55.843Z,77.77
2019-04-25T21:27:23.031Z,78.03
2019-04-25T21:29:52.123Z,77.55
2019-04-25T21:32:19.333Z,77.69
2019-04-25T21:34:46.805Z,77.20
2019-04-25T21:37:14.301Z,77.19
2019-04-25T21:39:47.762Z,77.62
2019-04-25T21:42:14.965Z,78.26
2019-04-25T21:44:42.003Z,78.46
2019-04-25T21:47:09.208Z,78.14
2019-04-25T21:49:36.247Z,78.29
2019-04-25T21:52:03.359Z,78.27
2019-04-25T21:54:30.358Z,77.40
2019-04-25T21:56:57.621Z,77.56
2019-04-25T21:59:24.573Z,77.76
2019-04-25T22:01:51.581Z,78.10
2019-04-25T22:04:18.574Z,78.37
2019-04-25T22:06:46.056Z,78.45
2019-04-25T22:09:14.919Z,78.07
2019-04-25T22:11:42.128Z,77.89
2019-04-25T22:14:09.206Z,78.10
2019-04-25T22:16:36.277Z,77.93
2019-04-25T22:19:04.276Z,77.66
2019-04-25T22:21:37.778Z,77.63
2019-04-25T22:24:06.253Z,77.98
2019-04-25T22:26:24.590Z,78.17
2019-04-25T22:28:51.618Z,78.08
2019-04-25T22:31:23.596Z,78.34
2019-04-25T22:33:55.482Z,79.01
2019-04-25T22:36:20.798Z,79.44
2019-04-25T22:38:47.805Z,79.53
2019-04-25T22:41:14.785Z,78.84
2019-04-25T22:43:41.821Z,78.82
2019-04-25T22:46:08.865Z,78.41
2019-04-25T22:48:41.775Z,78.61
2019-04-25T22:51:08.763Z,78.99
2019-04-25T22:53:36.216Z,78.70
2019-04-25T22:56:03.217Z,78.43
2019-04-25T22:58:30.249Z,77.71
2019-04-25T23:00:57.755Z,77.80
2019-04-25T23:03:27.051Z,77.78
2019-04-25T23:05:54.578Z,78.03
2019-04-25T23:08:22.087Z,77.28
2019-04-25T23:10:49.714Z,77.17
2019-04-25T23:13:16.843Z,76.99
2019-04-25T23:15:43.847Z,77.30
2019-04-25T23:18:11.396Z,77.48
2019-04-25T23:20:37.999Z,77.49
2019-04-25T23:23:05.866Z,77.18
2019-04-25T23:25:32.984Z,76.90
2019-04-25T23:28:00.746Z,77.50
2019-04-25T23:30:28.325Z,77.66
2019-04-25T23:32:55.366Z,77.39
2019-04-25T23:35:29.366Z,77.93
2019-04-25T23:37:49.584Z,78.18
2019-04-25T23:40:17.251Z,77.32
2019-04-25T23:42:44.305Z,77.03
2019-04-25T23:45:12.359Z,77.56
2019-04-25T23:47:39.531Z,77.29
2019-04-25T23:50:07.185Z,77.67
2019-04-25T23:52:33.852Z,77.33
2019-04-25T23:55:01.720Z,76.77
2019-04-25T23:57:29.194Z,76.57
2019-04-25T23:59:56.535Z,76.76
